sim
Sign-in with your pilot id or email,
or register
Callsign
Passwort

Schedule Details

Flight Number: OEO6516
Departure: Delhi Indira Gandhi International Airport (VIDP) at 07:15
Arrival: London Heathrow Airport (EGLL) at 17:10

Weather Information
Getting current METAR information for VIDP 271800Z 00000KT 2200 FU NSC 20/14 Q1013 NOSIG
Getting current METAR information for EGLL 271750Z AUTO 26013KT 9999 NCD 12/07 Q0996 NOSIG

Schedule Frequency

Route Map